sensor_id;sensor_type;location;lat;lon;timestamp;pressure;altitude;pressure_sealevel;temperature;humidity
41690;BME280;27372;42.658;23.256;2024-03-06T00:01:29;93521.69;;;6.09;98.85
41690;BME280;27372;42.658;23.256;2024-03-06T00:03:55;93541.00;;;6.01;99.57
41690;BME280;27372;42.658;23.256;2024-03-06T00:06:20;93530.94;;;5.72;100.00
41690;BME280;27372;42.658;23.256;2024-03-06T00:08:45;93542.75;;;5.75;100.00
41690;BME280;27372;42.658;23.256;2024-03-06T00:11:11;93544.53;;;5.49;100.00
41690;BME280;27372;42.658;23.256;2024-03-06T00:13:36;93543.31;;;5.52;100.00
41690;BME280;27372;42.658;23.256;2024-03-06T00:16:02;93550.16;;;5.46;100.00
41690;BME280;27372;42.658;23.256;2024-03-06T00:18:27;93543.44;;;5.32;100.00
41690;BME280;27372;42.658;23.256;2024-03-06T00:20:53;93533.06;;;5.57;100.00
41690;BME280;27372;42.658;23.256;2024-03-06T00:23:19;93535.97;;;5.74;100.00
41690;BME280;27372;42.658;23.256;2024-03-06T00:25:44;93546.81;;;5.71;100.00
41690;BME280;27372;42.658;23.256;2024-03-06T00:28:10;93539.47;;;5.86;100.00
41690;BME280;27372;42.658;23.256;2024-03-06T00:30:35;93544.91;;;5.85;100.00
41690;BME280;27372;42.658;23.256;2024-03-06T00:33:01;93542.38;;;5.71;100.00
41690;BME280;27372;42.658;23.256;2024-03-06T00:35:26;93541.03;;;5.30;100.00
41690;BME280;27372;42.658;23.256;2024-03-06T00:37:52;93547.13;;;4.58;100.00
41690;BME280;27372;42.658;23.256;2024-03-06T00:40:18;93534.63;;;4.08;100.00
41690;BME280;27372;42.658;23.256;2024-03-06T00:42:43;93534.44;;;3.89;100.00
41690;BME280;27372;42.658;23.256;2024-03-06T00:45:09;93540.22;;;4.18;100.00
41690;BME280;27372;42.658;23.256;2024-03-06T00:47:35;93541.22;;;4.17;100.00
41690;BME280;27372;42.658;23.256;2024-03-06T00:50:00;93537.03;;;4.16;100.00
41690;BME280;27372;42.658;23.256;2024-03-06T00:52:26;93537.81;;;4.10;100.00
41690;BME280;27372;42.658;23.256;2024-03-06T00:54:52;93536.59;;;4.19;100.00
41690;BME280;27372;42.658;23.256;2024-03-06T00:57:17;93533.22;;;4.19;100.00
41690;BME280;27372;42.658;23.256;2024-03-06T00:59:43;93538.22;;;4.27;100.00
41690;BME280;27372;42.658;23.256;2024-03-06T01:02:08;93539.38;;;4.38;100.00
41690;BME280;27372;42.658;23.256;2024-03-06T01:04:33;93538.19;;;4.47;100.00
41690;BME280;27372;42.658;23.256;2024-03-06T01:06:59;93542.16;;;4.57;100.00
41690;BME280;27372;42.658;23.256;2024-03-06T01:09:24;93544.34;;;4.53;100.00
41690;BME280;27372;42.658;23.256;2024-03-06T01:11:50;93542.16;;;4.50;100.00
41690;BME280;27372;42.658;23.256;2024-03-06T01:14:16;93547.34;;;4.57;100.00
41690;BME280;27372;42.658;23.256;2024-03-06T01:16:42;93540.56;;;4.56;100.00
41690;BME280;27372;42.658;23.256;2024-03-06T01:19:07;93546.53;;;4.63;100.00
41690;BME280;27372;42.658;23.256;2024-03-06T01:21:32;93541.88;;;4.78;100.00
41690;BME280;27372;42.658;23.256;2024-03-06T01:24:00;93533.16;;;4.53;100.00
41690;BME280;27372;42.658;23.256;2024-03-06T01:26:25;93533.16;;;4.46;100.00
41690;BME280;27372;42.658;23.256;2024-03-06T01:28:51;93525.13;;;4.54;100.00
41690;BME280;27372;42.658;23.256;2024-03-06T01:31:17;93527.97;;;4.46;100.00
41690;BME280;27372;42.658;23.256;2024-03-06T01:33:42;93523.75;;;4.51;100.00
41690;BME280;27372;42.658;23.256;2024-03-06T01:36:08;93526.44;;;4.84;100.00
41690;BME280;27372;42.658;23.256;2024-03-06T01:38:33;93530.16;;;5.01;100.00
41690;BME280;27372;42.658;23.256;2024-03-06T01:40:58;93532.31;;;5.18;100.00
41690;BME280;27372;42.658;23.256;2024-03-06T01:43:25;93526.22;;;5.31;100.00
41690;BME280;27372;42.658;23.256;2024-03-06T01:45:51;93523.03;;;5.28;100.00
41690;BME280;27372;42.658;23.256;2024-03-06T01:48:21;93524.16;;;5.39;100.00
41690;BME280;27372;42.658;23.256;2024-03-06T01:50:48;93535.50;;;5.52;100.00
41690;BME280;27372;42.658;23.256;2024-03-06T01:53:14;93521.94;;;5.43;100.00
41690;BME280;27372;42.658;23.256;2024-03-06T01:55:41;93531.09;;;5.52;100.00
41690;BME280;27372;42.658;23.256;2024-03-06T01:58:07;93540.03;;;5.63;100.00
41690;BME280;27372;42.658;23.256;2024-03-06T02:00:34;93531.81;;;5.66;100.00
41690;BME280;27372;42.658;23.256;2024-03-06T02:03:00;93528.78;;;5.69;100.00
41690;BME280;27372;42.658;23.256;2024-03-06T02:05:27;93543.19;;;5.72;100.00
41690;BME280;27372;42.658;23.256;2024-03-06T02:07:53;93546.41;;;5.74;100.00
41690;BME280;27372;42.658;23.256;2024-03-06T02:10:19;93534.00;;;5.69;100.00
41690;BME280;27372;42.658;23.256;2024-03-06T02:12:44;93536.44;;;5.64;100.00
41690;BME280;27372;42.658;23.256;2024-03-06T02:15:10;93538.97;;;5.46;100.00
41690;BME280;27372;42.658;23.256;2024-03-06T02:17:37;93546.31;;;5.23;100.00
41690;BME280;27372;42.658;23.256;2024-03-06T02:20:03;93556.81;;;5.42;100.00
41690;BME280;27372;42.658;23.256;2024-03-06T02:22:32;93562.44;;;5.39;100.00
41690;BME280;27372;42.658;23.256;2024-03-06T02:24:57;93561.13;;;5.55;100.00
41690;BME280;27372;42.658;23.256;2024-03-06T02:27:23;93559.72;;;5.59;100.00
41690;BME280;27372;42.658;23.256;2024-03-06T02:29:48;93561.28;;;5.60;100.00
41690;BME280;27372;42.658;23.256;2024-03-06T02:32:14;93554.09;;;5.55;100.00
41690;BME280;27372;42.658;23.256;2024-03-06T02:34:40;93565.34;;;5.56;100.00
41690;BME280;27372;42.658;23.256;2024-03-06T02:37:06;93565.75;;;5.53;100.00
41690;BME280;27372;42.658;23.256;2024-03-06T02:39:31;93568.63;;;5.44;100.00
41690;BME280;27372;42.658;23.256;2024-03-06T02:41:57;93573.25;;;4.97;100.00
41690;BME280;27372;42.658;23.256;2024-03-06T02:44:22;93571.22;;;4.99;100.00
41690;BME280;27372;42.658;23.256;2024-03-06T02:46:48;93568.59;;;5.06;100.00
41690;BME280;27372;42.658;23.256;2024-03-06T02:49:15;93576.13;;;4.62;100.00
41690;BME280;27372;42.658;23.256;2024-03-06T02:51:40;93577.59;;;4.44;100.00
41690;BME280;27372;42.658;23.256;2024-03-06T02:54:06;93567.97;;;4.38;100.00
41690;BME280;27372;42.658;23.256;2024-03-06T02:56:31;93566.19;;;4.45;100.00
41690;BME280;27372;42.658;23.256;2024-03-06T02:58:57;93562.00;;;4.24;100.00
41690;BME280;27372;42.658;23.256;2024-03-06T03:01:23;93561.59;;;4.20;100.00
41690;BME280;27372;42.658;23.256;2024-03-06T03:03:48;93569.34;;;4.61;100.00
41690;BME280;27372;42.658;23.256;2024-03-06T03:06:14;93577.72;;;4.83;100.00
41690;BME280;27372;42.658;23.256;2024-03-06T03:08:39;93566.06;;;4.92;100.00
41690;BME280;27372;42.658;23.256;2024-03-06T03:11:05;93573.78;;;5.06;100.00
41690;BME280;27372;42.658;23.256;2024-03-06T03:13:30;93573.25;;;4.97;100.00
41690;BME280;27372;42.658;23.256;2024-03-06T03:15:56;93575.28;;;4.88;100.00
41690;BME280;27372;42.658;23.256;2024-03-06T03:18:22;93576.06;;;4.89;100.00
41690;BME280;27372;42.658;23.256;2024-03-06T03:20:47;93574.47;;;4.88;100.00
41690;BME280;27372;42.658;23.256;2024-03-06T03:23:12;93583.88;;;4.89;100.00
41690;BME280;27372;42.658;23.256;2024-03-06T03:25:40;93582.72;;;4.78;100.00
41690;BME280;27372;42.658;23.256;2024-03-06T03:28:06;93581.09;;;4.77;100.00
41690;BME280;27372;42.658;23.256;2024-03-06T03:30:32;93577.09;;;4.81;100.00
41690;BME280;27372;42.658;23.256;2024-03-06T03:32:58;93582.25;;;4.94;100.00
41690;BME280;27372;42.658;23.256;2024-03-06T03:35:23;93581.59;;;5.06;100.00
41690;BME280;27372;42.658;23.256;2024-03-06T03:37:53;93587.69;;;4.86;100.00
41690;BME280;27372;42.658;23.256;2024-03-06T03:40:20;93593.69;;;4.87;100.00
41690;BME280;27372;42.658;23.256;2024-03-06T03:42:46;93577.72;;;4.83;100.00
41690;BME280;27372;42.658;23.256;2024-03-06T03:45:11;93579.72;;;4.68;100.00
41690;BME280;27372;42.658;23.256;2024-03-06T03:47:37;93572.00;;;4.41;100.00
41690;BME280;27372;42.658;23.256;2024-03-06T03:50:02;93580.44;;;3.96;100.00
41690;BME280;27372;42.658;23.256;2024-03-06T03:52:29;93581.41;;;3.81;100.00
41690;BME280;27372;42.658;23.256;2024-03-06T03:54:54;93577.81;;;3.82;100.00
41690;BME280;27372;42.658;23.256;2024-03-06T03:57:20;93577.00;;;3.82;100.00
41690;BME280;27372;42.658;23.256;2024-03-06T03:59:45;93583.03;;;3.96;100.00
41690;BME280;27372;42.658;23.256;2024-03-06T04:02:11;93589.22;;;4.01;100.00
41690;BME280;27372;42.658;23.256;2024-03-06T04:04:36;93587.78;;;3.92;100.00
41690;BME280;27372;42.658;23.256;2024-03-06T04:07:02;93593.41;;;4.09;100.00
41690;BME280;27372;42.658;23.256;2024-03-06T04:09:27;93590.59;;;4.24;100.00
41690;BME280;27372;42.658;23.256;2024-03-06T04:11:53;93589.00;;;4.30;100.00
41690;BME280;27372;42.658;23.256;2024-03-06T04:14:18;93596.78;;;4.37;100.00
41690;BME280;27372;42.658;23.256;2024-03-06T04:16:47;93601.00;;;4.51;100.00
41690;BME280;27372;42.658;23.256;2024-03-06T04:19:13;93611.19;;;4.53;100.00
41690;BME280;27372;42.658;23.256;2024-03-06T04:21:42;93616.41;;;4.26;100.00
41690;BME280;27372;42.658;23.256;2024-03-06T04:24:07;93605.97;;;4.53;100.00
41690;BME280;27372;42.658;23.256;2024-03-06T04:26:33;93611.19;;;4.53;100.00
41690;BME280;27372;42.658;23.256;2024-03-06T04:28:58;93620.56;;;4.60;100.00
41690;BME280;27372;42.658;23.256;2024-03-06T04:31:24;93620.75;;;4.59;100.00
41690;BME280;27372;42.658;23.256;2024-03-06T04:33:50;93611.56;;;4.63;100.00
41690;BME280;27372;42.658;23.256;2024-03-06T04:36:15;93611.75;;;4.68;100.00
41690;BME280;27372;42.658;23.256;2024-03-06T04:38:41;93620.16;;;4.70;100.00
41690;BME280;27372;42.658;23.256;2024-03-06T04:41:06;93620.53;;;4.80;100.00
41690;BME280;27372;42.658;23.256;2024-03-06T04:43:32;93623.19;;;4.67;100.00
41690;BME280;27372;42.658;23.256;2024-03-06T04:45:57;93620.19;;;4.43;100.00
41690;BME280;27372;42.658;23.256;2024-03-06T04:48:23;93618.97;;;4.53;100.00
41690;BME280;27372;42.658;23.256;2024-03-06T04:50:48;93627.97;;;4.63;100.00
41690;BME280;27372;42.658;23.256;2024-03-06T04:53:14;93637.19;;;4.66;100.00
41690;BME280;27372;42.658;23.256;2024-03-06T04:55:39;93640.94;;;4.77;100.00
41690;BME280;27372;42.658;23.256;2024-03-06T04:58:05;93645.75;;;4.73;100.00
41690;BME280;27372;42.658;23.256;2024-03-06T05:00:31;93638.56;;;4.75;100.00
41690;BME280;27372;42.658;23.256;2024-03-06T05:02:56;93633.16;;;4.77;100.00
41690;BME280;27372;42.658;23.256;2024-03-06T05:05:22;93642.78;;;4.70;99.96
41690;BME280;27372;42.658;23.256;2024-03-06T05:07:48;93640.56;;;4.73;100.00
41690;BME280;27372;42.658;23.256;2024-03-06T05:10:14;93636.97;;;4.68;100.00
41690;BME280;27372;42.658;23.256;2024-03-06T05:12:40;93631.81;;;4.47;100.00
41690;BME280;27372;42.658;23.256;2024-03-06T05:15:06;93641.00;;;4.43;100.00
41690;BME280;27372;42.658;23.256;2024-03-06T05:17:33;93635.59;;;4.51;100.00
41690;BME280;27372;42.658;23.256;2024-03-06T05:19:59;93640.16;;;4.70;100.00
41690;BME280;27372;42.658;23.256;2024-03-06T05:22:24;93647.38;;;4.74;100.00
41690;BME280;27372;42.658;23.256;2024-03-06T05:24:50;93636.16;;;4.74;100.00
41690;BME280;27372;42.658;23.256;2024-03-06T05:27:15;93642.75;;;4.83;100.00
41690;BME280;27372;42.658;23.256;2024-03-06T05:29:44;93660.13;;;4.96;100.00
41690;BME280;27372;42.658;23.256;2024-03-06T05:32:09;93652.47;;;5.15;100.00
41690;BME280;27372;42.658;23.256;2024-03-06T05:34:35;93649.22;;;5.33;100.00
41690;BME280;27372;42.658;23.256;2024-03-06T05:37:01;93659.19;;;5.42;100.00
41690;BME280;27372;42.658;23.256;2024-03-06T05:39:29;93653.09;;;5.10;100.00
41690;BME280;27372;42.658;23.256;2024-03-06T05:41:55;93657.69;;;5.15;100.00
41690;BME280;27372;42.658;23.256;2024-03-06T05:44:20;93656.91;;;5.07;100.00
41690;BME280;27372;42.658;23.256;2024-03-06T05:46:47;93664.91;;;4.99;100.00
41690;BME280;27372;42.658;23.256;2024-03-06T05:49:21;93663.28;;;5.11;100.00
41690;BME280;27372;42.658;23.256;2024-03-06T05:51:46;93662.50;;;5.18;100.00
41690;BME280;27372;42.658;23.256;2024-03-06T05:54:12;93656.34;;;4.92;100.00
41690;BME280;27372;42.658;23.256;2024-03-06T05:56:37;93660.56;;;4.79;100.00
41690;BME280;27372;42.658;23.256;2024-03-06T05:59:04;93672.53;;;5.01;100.00
41690;BME280;27372;42.658;23.256;2024-03-06T06:01:33;93675.69;;;5.23;100.00
41690;BME280;27372;42.658;23.256;2024-03-06T06:03:58;93673.28;;;5.28;100.00
41690;BME280;27372;42.658;23.256;2024-03-06T06:06:25;93677.00;;;5.46;100.00
41690;BME280;27372;42.658;23.256;2024-03-06T06:08:51;93684.72;;;5.66;100.00
41690;BME280;27372;42.658;23.256;2024-03-06T06:11:17;93687.25;;;5.86;100.00
41690;BME280;27372;42.658;23.256;2024-03-06T06:13:42;93687.81;;;5.95;100.00
41690;BME280;27372;42.658;23.256;2024-03-06T06:16:07;93684.16;;;6.02;99.43
41690;BME280;27372;42.658;23.256;2024-03-06T06:18:33;93690.25;;;6.28;97.38
41690;BME280;27372;42.658;23.256;2024-03-06T06:20:59;93682.94;;;6.37;97.25
41690;BME280;27372;42.658;23.256;2024-03-06T06:23:25;93676.75;;;6.57;97.88
41690;BME280;27372;42.658;23.256;2024-03-06T06:25:51;93678.22;;;6.78;98.83
41690;BME280;27372;42.658;23.256;2024-03-06T06:28:16;93669.22;;;6.92;98.38
41690;BME280;27372;42.658;23.256;2024-03-06T06:30:42;93677.94;;;7.05;98.07
41690;BME280;27372;42.658;23.256;2024-03-06T06:33:07;93676.72;;;7.07;97.41
41690;BME280;27372;42.658;23.256;2024-03-06T06:35:34;93676.66;;;7.14;98.06
41690;BME280;27372;42.658;23.256;2024-03-06T06:38:02;93670.41;;;7.34;95.90
41690;BME280;27372;42.658;23.256;2024-03-06T06:40:28;93667.44;;;7.30;92.48
41690;BME280;27372;42.658;23.256;2024-03-06T06:42:54;93666.47;;;7.43;90.98
41690;BME280;27372;42.658;23.256;2024-03-06T06:45:20;93663.63;;;7.63;91.50
41690;BME280;27372;42.658;23.256;2024-03-06T06:47:48;93665.88;;;7.78;90.59
41690;BME280;27372;42.658;23.256;2024-03-06T06:50:13;93674.13;;;7.93;90.08
41690;BME280;27372;42.658;23.256;2024-03-06T06:52:39;93679.78;;;7.90;88.19
41690;BME280;27372;42.658;23.256;2024-03-06T06:55:05;93680.22;;;7.87;87.99
41690;BME280;27372;42.658;23.256;2024-03-06T06:57:31;93680.41;;;8.04;87.41
41690;BME280;27372;42.658;23.256;2024-03-06T06:59:58;93688.53;;;8.27;87.01
41690;BME280;27372;42.658;23.256;2024-03-06T07:02:24;93685.03;;;8.33;86.98
41690;BME280;27372;42.658;23.256;2024-03-06T07:04:50;93691.91;;;8.46;87.21
41690;BME280;27372;42.658;23.256;2024-03-06T07:07:15;93679.59;;;8.46;87.28
41690;BME280;27372;42.658;23.256;2024-03-06T07:09:40;93687.28;;;8.48;87.42
41690;BME280;27372;42.658;23.256;2024-03-06T07:12:06;93698.72;;;8.47;87.11
41690;BME280;27372;42.658;23.256;2024-03-06T07:14:33;93686.00;;;8.50;86.57
41690;BME280;27372;42.658;23.256;2024-03-06T07:16:58;93685.09;;;8.57;86.73
41690;BME280;27372;42.658;23.256;2024-03-06T07:19:24;93692.97;;;8.57;85.90
41690;BME280;27372;42.658;23.256;2024-03-06T07:21:49;93685.81;;;8.64;85.86
41690;BME280;27372;42.658;23.256;2024-03-06T07:24:15;93698.22;;;8.68;85.62
41690;BME280;27372;42.658;23.256;2024-03-06T07:26:40;93693.34;;;8.72;84.82
41690;BME280;27372;42.658;23.256;2024-03-06T07:29:06;93696.53;;;8.86;84.48
41690;BME280;27372;42.658;23.256;2024-03-06T07:31:39;93690.28;;;8.87;84.26
41690;BME280;27372;42.658;23.256;2024-03-06T07:34:04;93696.97;;;9.19;82.68
41690;BME280;27372;42.658;23.256;2024-03-06T07:36:33;93699.94;;;9.10;82.03
41690;BME280;27372;42.658;23.256;2024-03-06T07:38:58;93692.41;;;8.78;82.91
41690;BME280;27372;42.658;23.256;2024-03-06T07:41:24;93694.47;;;9.00;83.36
41690;BME280;27372;42.658;23.256;2024-03-06T07:43:49;93692.31;;;9.09;83.02
41690;BME280;27372;42.658;23.256;2024-03-06T07:46:14;93687.63;;;9.35;81.88
41690;BME280;27372;42.658;23.256;2024-03-06T07:48:44;93687.91;;;9.62;80.08
41690;BME280;27372;42.658;23.256;2024-03-06T07:51:09;93696.34;;;9.64;80.14
41690;BME280;27372;42.658;23.256;2024-03-06T07:53:35;93683.13;;;9.59;80.55
41690;BME280;27372;42.658;23.256;2024-03-06T07:56:01;93689.53;;;9.92;79.78
41690;BME280;27372;42.658;23.256;2024-03-06T07:58:26;93693.50;;;9.94;78.78
41690;BME280;27372;42.658;23.256;2024-03-06T08:00:52;93690.03;;;10.06;78.42
41690;BME280;27372;42.658;23.256;2024-03-06T08:03:21;93706.88;;;9.93;78.47
41690;BME280;27372;42.658;23.256;2024-03-06T08:05:49;93694.22;;;10.19;78.02
41690;BME280;27372;42.658;23.256;2024-03-06T08:08:15;93696.19;;;10.40;77.21
41690;BME280;27372;42.658;23.256;2024-03-06T08:10:40;93714.34;;;10.59;76.16
41690;BME280;27372;42.658;23.256;2024-03-06T08:13:05;93703.84;;;10.42;76.83
41690;BME280;27372;42.658;23.256;2024-03-06T08:15:31;93710.63;;;10.72;76.17
41690;BME280;27372;42.658;23.256;2024-03-06T08:17:56;93716.47;;;10.45;76.21
41690;BME280;27372;42.658;23.256;2024-03-06T08:20:22;93713.72;;;10.52;76.65
41690;BME280;27372;42.658;23.256;2024-03-06T08:22:47;93710.72;;;10.94;75.18
41690;BME280;27372;42.658;23.256;2024-03-06T08:25:13;93706.22;;;11.12;72.75
41690;BME280;27372;42.658;23.256;2024-03-06T08:27:41;93705.00;;;11.37;72.26
41690;BME280;27372;42.658;23.256;2024-03-06T08:30:08;93699.13;;;11.96;69.80
41690;BME280;27372;42.658;23.256;2024-03-06T08:32:35;93707.75;;;12.36;68.49
41690;BME280;27372;42.658;23.256;2024-03-06T08:35:02;93699.91;;;12.41;67.95
41690;BME280;27372;42.658;23.256;2024-03-06T08:37:31;93705.28;;;12.51;66.91
41690;BME280;27372;42.658;23.256;2024-03-06T08:39:56;93710.75;;;12.45;66.92
41690;BME280;27372;42.658;23.256;2024-03-06T08:42:23;93706.72;;;12.64;66.01
41690;BME280;27372;42.658;23.256;2024-03-06T08:44:48;93705.50;;;12.82;65.21
41690;BME280;27372;42.658;23.256;2024-03-06T08:47:14;93704.72;;;12.77;64.50
41690;BME280;27372;42.658;23.256;2024-03-06T08:49:39;93708.00;;;12.94;64.69
41690;BME280;27372;42.658;23.256;2024-03-06T08:52:05;93703.88;;;13.09;64.14
41690;BME280;27372;42.658;23.256;2024-03-06T08:54:30;93713.50;;;13.30;62.11
41690;BME280;27372;42.658;23.256;2024-03-06T08:56:56;93702.50;;;13.97;60.56
41690;BME280;27372;42.658;23.256;2024-03-06T08:59:23;93704.44;;;14.22;58.53
41690;BME280;27372;42.658;23.256;2024-03-06T09:01:51;93707.13;;;14.38;57.67
41690;BME280;27372;42.658;23.256;2024-03-06T09:04:17;93710.19;;;13.98;59.82
41690;BME280;27372;42.658;23.256;2024-03-06T09:06:43;93714.75;;;14.24;59.78
41690;BME280;27372;42.658;23.256;2024-03-06T09:09:08;93714.59;;;14.67;56.74
41690;BME280;27372;42.658;23.256;2024-03-06T09:11:34;93715.66;;;14.91;56.16
41690;BME280;27372;42.658;23.256;2024-03-06T09:14:00;93707.47;;;15.03;56.13
41690;BME280;27372;42.658;23.256;2024-03-06T09:16:25;93711.72;;;14.94;55.92
41690;BME280;27372;42.658;23.256;2024-03-06T09:18:51;93717.47;;;15.37;54.35
41690;BME280;27372;42.658;23.256;2024-03-06T09:21:16;93703.34;;;15.78;53.74
41690;BME280;27372;42.658;23.256;2024-03-06T09:23:41;93693.53;;;15.89;53.04
41690;BME280;27372;42.658;23.256;2024-03-06T09:26:07;93701.38;;;16.15;52.09
41690;BME280;27372;42.658;23.256;2024-03-06T09:28:32;93697.47;;;16.02;51.00
41690;BME280;27372;42.658;23.256;2024-03-06T09:30:57;93701.34;;;15.34;53.04
41690;BME280;27372;42.658;23.256;2024-03-06T09:33:23;93705.31;;;14.54;55.02
41690;BME280;27372;42.658;23.256;2024-03-06T09:35:48;93707.47;;;14.93;55.09
41690;BME280;27372;42.658;23.256;2024-03-06T09:38:13;93696.59;;;14.48;55.72
41690;BME280;27372;42.658;23.256;2024-03-06T09:40:39;93693.94;;;14.64;55.79
41690;BME280;27372;42.658;23.256;2024-03-06T09:43:07;93693.34;;;14.20;56.47
41690;BME280;27372;42.658;23.256;2024-03-06T09:45:34;93691.69;;;13.93;57.47
41690;BME280;27372;42.658;23.256;2024-03-06T09:47:59;93697.72;;;13.84;57.63
41690;BME280;27372;42.658;23.256;2024-03-06T09:50:25;93691.59;;;13.73;58.44
41690;BME280;27372;42.658;23.256;2024-03-06T09:52:55;93702.00;;;14.00;57.38
41690;BME280;27372;42.658;23.256;2024-03-06T09:55:21;93691.44;;;14.05;56.74
41690;BME280;27372;42.658;23.256;2024-03-06T09:57:47;93694.94;;;14.26;56.73
41690;BME280;27372;42.658;23.256;2024-03-06T10:00:13;93691.53;;;14.36;56.06
41690;BME280;27372;42.658;23.256;2024-03-06T10:02:48;93697.91;;;14.61;55.58
41690;BME280;27372;42.658;23.256;2024-03-06T10:05:22;93690.56;;;14.73;54.24
41690;BME280;27372;42.658;23.256;2024-03-06T10:07:50;93692.59;;;15.38;52.78
41690;BME280;27372;42.658;23.256;2024-03-06T10:10:16;93676.63;;;15.85;50.77
41690;BME280;27372;42.658;23.256;2024-03-06T10:12:44;93674.22;;;16.39;49.74
41690;BME280;27372;42.658;23.256;2024-03-06T10:15:10;93666.56;;;16.77;47.96
41690;BME280;27372;42.658;23.256;2024-03-06T10:17:37;93666.47;;;16.53;48.75
41690;BME280;27372;42.658;23.256;2024-03-06T10:20:20;93679.22;;;16.80;47.01
41690;BME280;27372;42.658;23.256;2024-03-06T10:22:48;93667.25;;;17.71;45.99
41690;BME280;27372;42.658;23.256;2024-03-06T10:25:14;93657.94;;;16.96;46.91
41690;BME280;27372;42.658;23.256;2024-03-06T10:27:40;93663.53;;;17.72;45.73
41690;BME280;27372;42.658;23.256;2024-03-06T10:30:06;93666.00;;;18.69;42.17
41690;BME280;27372;42.658;23.256;2024-03-06T10:32:36;93673.38;;;19.11;41.81
41690;BME280;27372;42.658;23.256;2024-03-06T10:35:01;93652.75;;;19.63;39.88
41690;BME280;27372;42.658;23.256;2024-03-06T10:37:28;93653.00;;;19.76;39.18
41690;BME280;27372;42.658;23.256;2024-03-06T10:39:54;93641.28;;;19.91;38.48
41690;BME280;27372;42.658;23.256;2024-03-06T10:42:23;93645.75;;;20.32;37.03
41690;BME280;27372;42.658;23.256;2024-03-06T10:44:52;93634.06;;;21.01;36.38
41690;BME280;27372;42.658;23.256;2024-03-06T10:47:19;93645.69;;;20.60;36.30
41690;BME280;27372;42.658;23.256;2024-03-06T10:49:45;93629.25;;;20.81;35.80
41690;BME280;27372;42.658;23.256;2024-03-06T10:52:10;93635.56;;;19.97;36.89
41690;BME280;27372;42.658;23.256;2024-03-06T10:54:37;93624.84;;;20.25;36.16
41690;BME280;27372;42.658;23.256;2024-03-06T10:57:08;93624.38;;;20.83;35.15
41690;BME280;27372;42.658;23.256;2024-03-06T10:59:35;93618.69;;;21.07;34.45
41690;BME280;27372;42.658;23.256;2024-03-06T11:02:01;93616.28;;;21.60;33.15
41690;BME280;27372;42.658;23.256;2024-03-06T11:04:28;93612.84;;;21.68;32.23
41690;BME280;27372;42.658;23.256;2024-03-06T11:06:58;93620.56;;;20.75;32.71
41690;BME280;27372;42.658;23.256;2024-03-06T11:09:26;93611.19;;;20.86;32.73
41690;BME280;27372;42.658;23.256;2024-03-06T11:11:53;93597.28;;;21.21;33.07
41690;BME280;27372;42.658;23.256;2024-03-06T11:14:21;93597.44;;;22.40;31.21
41690;BME280;27372;42.658;23.256;2024-03-06T11:19:27;93588.13;;;22.20;29.77
41690;BME280;27372;42.658;23.256;2024-03-06T11:21:52;93592.66;;;21.44;30.19
41690;BME280;27372;42.658;23.256;2024-03-06T11:24:20;93584.19;;;22.26;29.91
41690;BME280;27372;42.658;23.256;2024-03-06T11:26:53;93585.97;;;21.64;30.12
41690;BME280;27372;42.658;23.256;2024-03-06T11:29:21;93583.41;;;22.34;32.93
41690;BME280;27372;42.658;23.256;2024-03-06T11:31:57;93578.91;;;23.09;34.98
41690;BME280;27372;42.658;23.256;2024-03-06T11:34:24;93565.44;;;23.44;35.25
41690;BME280;27372;42.658;23.256;2024-03-06T11:36:53;93553.66;;;24.17;32.98
41690;BME280;27372;42.658;23.256;2024-03-06T11:39:19;93559.09;;;24.51;29.51
41690;BME280;27372;42.658;23.256;2024-03-06T11:41:49;93549.94;;;24.10;29.47
41690;BME280;27372;42.658;23.256;2024-03-06T11:44:19;93557.75;;;22.33;30.20
41690;BME280;27372;42.658;23.256;2024-03-06T11:49:25;93566.22;;;20.48;33.96
41690;BME280;27372;42.658;23.256;2024-03-06T11:51:51;93563.25;;;22.19;32.86
41690;BME280;27372;42.658;23.256;2024-03-06T11:54:17;93555.72;;;22.13;32.83
41690;BME280;27372;42.658;23.256;2024-03-06T11:56:54;93555.28;;;23.11;31.12
41690;BME280;27372;42.658;23.256;2024-03-06T11:59:22;93558.31;;;23.09;29.97
41690;BME280;27372;42.658;23.256;2024-03-06T12:01:48;93540.88;;;23.33;30.23
41690;BME280;27372;42.658;23.256;2024-03-06T12:04:13;93540.88;;;23.63;29.02
41690;BME280;27372;42.658;23.256;2024-03-06T12:06:39;93541.88;;;23.20;29.85
41690;BME280;27372;42.658;23.256;2024-03-06T12:09:04;93544.03;;;22.70;29.76
41690;BME280;27372;42.658;23.256;2024-03-06T12:11:30;93536.59;;;23.41;28.65
41690;BME280;27372;42.658;23.256;2024-03-06T12:13:56;93521.63;;;23.91;27.64
41690;BME280;27372;42.658;23.256;2024-03-06T12:16:22;93531.81;;;21.90;28.57
41690;BME280;27372;42.658;23.256;2024-03-06T12:18:54;93529.13;;;21.99;29.43
41690;BME280;27372;42.658;23.256;2024-03-06T12:21:23;93537.22;;;21.50;29.62
41690;BME280;27372;42.658;23.256;2024-03-06T12:23:48;93530.53;;;21.30;29.15
41690;BME280;27372;42.658;23.256;2024-03-06T12:26:14;93525.81;;;21.26;28.79
41690;BME280;27372;42.658;23.256;2024-03-06T12:28:39;93530.03;;;20.78;29.34
41690;BME280;27372;42.658;23.256;2024-03-06T12:31:08;93524.91;;;20.00;29.21
41690;BME280;27372;42.658;23.256;2024-03-06T12:33:33;93519.72;;;19.30;30.77
41690;BME280;27372;42.658;23.256;2024-03-06T12:36:06;93518.81;;;18.93;30.68
41690;BME280;27372;42.658;23.256;2024-03-06T12:38:35;93511.50;;;19.40;30.11
41690;BME280;27372;42.658;23.256;2024-03-06T12:41:00;93509.16;;;19.25;30.88
41690;BME280;27372;42.658;23.256;2024-03-06T12:43:26;93519.00;;;19.38;31.20
41690;BME280;27372;42.658;23.256;2024-03-06T12:45:52;93521.19;;;19.22;31.81
41690;BME280;27372;42.658;23.256;2024-03-06T12:48:20;93506.81;;;19.88;30.01
41690;BME280;27372;42.658;23.256;2024-03-06T12:50:46;93509.84;;;19.95;30.99
41690;BME280;27372;42.658;23.256;2024-03-06T12:53:17;93514.94;;;20.51;30.75